PWSweather.com
Personal Weather Stations
Station Observations

OlomoucCZ

Lat: 49.5936202181, Lon: 17.2276005149

Elevation: 752

Station Type: Davis Vantage Pro 2 Activ

http://infopocasi-olomouc.cz

Latest ConditionsUpdated 11:30:01 PM GMT+01:01 Monday, Oct 15, 2018
Currently Today's Max Today's Min Today's Average
Temperature 49.0°F9.4°C 67.6°F19.8°C 46.5°F8.1°C 58.0°F14.4°C
Dew Point 42.4°F5.8°C 44.7°F7.1°C 41.6°F5.3°C 43.2°F6.2°C
Winds 1.2 mph ENE1.9 kmh ENE 16.1 mph -25.9 kmh - - 6.2 mph 10.0 kmh
Wind Gusts 1.2 mph1.9 kmh 19.6 mph31.5 kmh - -
Humidity 78% 84% 40% 60%
Pressure 30.11 in1019.6 mb 30.16 in1021.3 mb 30.10 in1019.3 mb -
Hour Temp Dew Point Humidity Winds Wind Gusts Pressure Precip Precip Rate Daily Precip Total
11:30 PM 49.0°F9.4°C 42.4°F5.8°C 78% 1.2 mph ENE1.9 kmh ENE 1.2 mph1.9 kmh 30.11 in1019.6 mb - 0.00 in0.0 mm 0.00 in0.0 mm
11:00 PM 49.3°F9.6°C 42.1°F5.6°C 76% 1.2 mph ESE1.9 kmh ESE 1.2 mph1.9 kmh 30.12 in1020.0 mb - 0.00 in0.0 mm 0.00 in0.0 mm
10:30 PM 50.0°F10.0°C 42.4°F5.8°C 75% 2.3 mph ESE3.7 kmh ESE 3.5 mph5.6 kmh 30.12 in1020.0 mb - 0.00 in0.0 mm 0.00 in0.0 mm
10:00 PM 50.8°F10.4°C 42.5°F5.8°C 73% 2.3 mph E3.7 kmh E 3.5 mph5.6 kmh 30.12 in1020.0 mb - 0.00 in0.0 mm 0.00 in0.0 mm
09:30 PM 51.7°F10.9°C 43.0°F6.1°C 72% 4.6 mph E7.4 kmh E 5.8 mph9.3 kmh 30.12 in1020.0 mb - 0.00 in0.0 mm 0.00 in0.0 mm
09:00 PM 53.7°F12.1°C 43.0°F6.1°C 67% 5.8 mph ESE9.3 kmh ESE 6.9 mph11.1 kmh 30.12 in1020.0 mb - 0.00 in0.0 mm 0.00 in0.0 mm
08:30 PM 54.1°F12.3°C 43.0°F6.1°C 66% 3.5 mph ESE5.6 kmh ESE 6.9 mph11.1 kmh 30.12 in1020.0 mb - 0.00 in0.0 mm 0.00 in0.0 mm
08:00 PM 55.8°F13.2°C 43.4°F6.3°C 63% 3.5 mph ESE5.6 kmh ESE 6.9 mph11.1 kmh 30.11 in1019.6 mb - 0.00 in0.0 mm 0.00 in0.0 mm
07:30 PM 55.9°F13.3°C 43.9°F6.6°C 64% 4.6 mph SE7.4 kmh SE 6.9 mph11.1 kmh 30.11 in1019.6 mb - 0.00 in0.0 mm 0.00 in0.0 mm
07:00 PM 54.5°F12.5°C 43.8°F6.6°C 67% 3.5 mph ESE5.6 kmh ESE 5.8 mph9.3 kmh 30.11 in1019.6 mb - 0.00 in0.0 mm 0.00 in0.0 mm
06:30 PM 56.0°F13.3°C 43.6°F6.4°C 63% 3.5 mph SE5.6 kmh SE 5.8 mph9.3 kmh 30.11 in1019.6 mb - 0.00 in0.0 mm 0.00 in0.0 mm
06:00 PM 59.5°F15.3°C 43.3°F6.3°C 55% 3.5 mph SE5.6 kmh SE 5.8 mph9.3 kmh 30.11 in1019.6 mb - 0.00 in0.0 mm 0.00 in0.0 mm
05:30 PM 61.2°F16.2°C 42.9°F6.1°C 51% 3.5 mph SE5.6 kmh SE 4.6 mph7.4 kmh 30.11 in1019.6 mb - 0.00 in0.0 mm 0.00 in0.0 mm
05:00 PM 64.3°F17.9°C 43.1°F6.2°C 46% 4.6 mph SE7.4 kmh SE 8.1 mph13.0 kmh 30.11 in1019.6 mb - 0.00 in0.0 mm 0.00 in0.0 mm
04:30 PM 65.6°F18.7°C 43.1°F6.2°C 44% 8.1 mph SE13.0 kmh SE 10.4 mph16.7 kmh 30.11 in1019.6 mb - 0.00 in0.0 mm 0.00 in0.0 mm
04:00 PM 66.7°F19.3°C 43.5°F6.4°C 43% 10.4 mph SE16.7 kmh SE 11.5 mph18.5 kmh 30.10 in1019.3 mb - 0.00 in0.0 mm 0.00 in0.0 mm
03:30 PM 67.3°F19.6°C 42.8°F6.0°C 41% 9.2 mph ESE14.8 kmh ESE 11.5 mph18.5 kmh 30.11 in1019.6 mb - 0.00 in0.0 mm 0.00 in0.0 mm
03:00 PM 67.6°F19.8°C 43.1°F6.2°C 41% 5.8 mph ESE9.3 kmh ESE 9.2 mph14.8 kmh 30.11 in1019.6 mb - 0.00 in0.0 mm 0.00 in0.0 mm
02:30 PM 67.5°F19.7°C 42.3°F5.7°C 40% 9.2 mph SE14.8 kmh SE 11.5 mph18.5 kmh 30.11 in1019.6 mb - 0.00 in0.0 mm 0.00 in0.0 mm
02:00 PM 67.3°F19.6°C 42.8°F6.0°C 41% 6.9 mph E11.1 kmh E 10.4 mph16.7 kmh 30.11 in1019.6 mb - 0.00 in0.0 mm 0.00 in0.0 mm
01:30 PM 67.6°F19.8°C 43.1°F6.2°C 41% 11.5 mph SE18.5 kmh SE 19.6 mph31.5 kmh 30.12 in1020.0 mb - 0.00 in0.0 mm 0.00 in0.0 mm
01:00 PM 67.2°F19.6°C 42.1°F5.6°C 40% 16.1 mph SE25.9 kmh SE 19.6 mph31.5 kmh 30.13 in1020.3 mb - 0.00 in0.0 mm 0.00 in0.0 mm
12:30 PM 67.5°F19.7°C 42.3°F5.7°C 40% 15.0 mph SE24.1 kmh SE 15.0 mph24.1 kmh 30.14 in1020.7 mb - 0.00 in0.0 mm 0.00 in0.0 mm
12:00 PM 67.5°F19.7°C 43.6°F6.4°C 42% 12.7 mph SE20.4 kmh SE 13.8 mph22.2 kmh 30.14 in1020.7 mb - 0.00 in0.0 mm 0.00 in0.0 mm
11:30 AM 67.2°F19.6°C 43.9°F6.6°C 43% 9.2 mph E14.8 kmh E 15.0 mph24.1 kmh 30.14 in1020.7 mb - 0.00 in0.0 mm 0.00 in0.0 mm
11:00 AM 66.1°F18.9°C 43.5°F6.4°C 44% 10.4 mph SE16.7 kmh SE 13.8 mph22.2 kmh 30.15 in1021.0 mb - 0.00 in0.0 mm 0.00 in0.0 mm
10:30 AM 65.3°F18.5°C 43.4°F6.3°C 45% 10.4 mph SE16.7 kmh SE 15.0 mph24.1 kmh 30.15 in1021.0 mb - 0.00 in0.0 mm 0.00 in0.0 mm
10:00 AM 63.5°F17.5°C 42.3°F5.7°C 46% 10.4 mph SE16.7 kmh SE 16.1 mph25.9 kmh 30.16 in1021.3 mb - 0.00 in0.0 mm 0.00 in0.0 mm
09:30 AM 62.4°F16.9°C 42.4°F5.8°C 48% 6.9 mph E11.1 kmh E 8.1 mph13.0 kmh 30.16 in1021.3 mb - 0.00 in0.0 mm 0.00 in0.0 mm
09:00 AM 61.4°F16.3°C 42.1°F5.6°C 49% 8.1 mph SE13.0 kmh SE 11.5 mph18.5 kmh 30.16 in1021.3 mb - 0.00 in0.0 mm 0.00 in0.0 mm
08:30 AM 59.8°F15.4°C 41.6°F5.3°C 51% 9.2 mph ESE14.8 kmh ESE 11.5 mph18.5 kmh 30.15 in1021.0 mb - 0.00 in0.0 mm 0.00 in0.0 mm
08:00 AM 54.6°F12.6°C 43.9°F6.6°C 67% 4.6 mph SE7.4 kmh SE 8.1 mph13.0 kmh 30.15 in1021.0 mb - 0.00 in0.0 mm 0.00 in0.0 mm
07:30 AM 48.2°F9.0°C 43.3°F6.3°C 83% 1.2 mph NW1.9 kmh NW 2.3 mph3.7 kmh 30.15 in1021.0 mb - 0.00 in0.0 mm 0.00 in0.0 mm
07:00 AM 46.8°F8.2°C 41.9°F5.5°C 83% 2.3 mph SE3.7 kmh SE 3.5 mph5.6 kmh 30.15 in1021.0 mb - 0.00 in0.0 mm 0.00 in0.0 mm
06:30 AM 47.2°F8.4°C 42.0°F5.6°C 82% 1.2 mph NE1.9 kmh NE 2.3 mph3.7 kmh 30.14 in1020.7 mb - 0.00 in0.0 mm 0.00 in0.0 mm
06:00 AM 53.8°F12.1°C 44.3°F6.8°C 70% 3.5 mph ESE5.6 kmh ESE 4.6 mph7.4 kmh 30.14 in1020.7 mb - 0.00 in0.0 mm 0.00 in0.0 mm
05:30 AM 50.4°F10.2°C 44.1°F6.7°C 79% 8.1 mph ESE13.0 kmh ESE 10.4 mph16.7 kmh 30.14 in1020.7 mb - 0.00 in0.0 mm 0.00 in0.0 mm
05:00 AM 46.5°F8.1°C 41.9°F5.5°C 84% 1.2 mph N1.9 kmh N 3.5 mph5.6 kmh 30.14 in1020.7 mb - 0.00 in0.0 mm 0.00 in0.0 mm
04:30 AM 48.3°F9.1°C 42.7°F5.9°C 81% 1.2 mph WNW1.9 kmh WNW 2.3 mph3.7 kmh 30.14 in1020.7 mb - 0.00 in0.0 mm 0.00 in0.0 mm
04:00 AM 51.4°F10.8°C 43.0°F6.1°C 73% 3.5 mph NW5.6 kmh NW 3.5 mph5.6 kmh 30.15 in1021.0 mb - 0.00 in0.0 mm 0.00 in0.0 mm
03:30 AM 56.3°F13.5°C 44.7°F7.1°C 65% 5.8 mph ESE9.3 kmh ESE 9.2 mph14.8 kmh 30.14 in1020.7 mb - 0.00 in0.0 mm 0.00 in0.0 mm
03:00 AM 54.7°F12.6°C 44.4°F6.9°C 68% 6.9 mph ESE11.1 kmh ESE 9.2 mph14.8 kmh 30.15 in1021.0 mb - 0.00 in0.0 mm 0.00 in0.0 mm
02:30 AM 56.4°F13.6°C 44.4°F6.9°C 64% 4.6 mph ESE7.4 kmh ESE 5.8 mph9.3 kmh 30.15 in1021.0 mb - 0.00 in0.0 mm 0.00 in0.0 mm
02:00 AM 56.6°F13.7°C 44.1°F6.7°C 63% 9.2 mph ESE14.8 kmh ESE 11.5 mph18.5 kmh 30.15 in1021.0 mb - 0.00 in0.0 mm 0.00 in0.0 mm
01:30 AM 56.6°F13.7°C 44.2°F6.8°C 63% 5.8 mph SE9.3 kmh SE 8.1 mph13.0 kmh 30.15 in1021.0 mb - 0.00 in0.0 mm 0.00 in0.0 mm
01:00 AM 57.0°F13.9°C 44.1°F6.7°C 62% 5.8 mph SE9.3 kmh SE 8.1 mph13.0 kmh 30.15 in1021.0 mb - 0.00 in0.0 mm 0.00 in0.0 mm
12:30 AM 57.6°F14.2°C 44.2°F6.8°C 61% 8.1 mph SE13.0 kmh SE 9.2 mph14.8 kmh 30.14 in1020.7 mb - 0.00 in0.0 mm 0.00 in0.0 mm
12:00 AM 58.4°F14.7°C 44.6°F7.0°C 60% 6.9 mph ESE11.1 kmh ESE 9.2 mph14.8 kmh 30.15 in1021.0 mb - 0.00 in0.0 mm 0.00 in0.0 mm